Time;durP1;ratioP1;P1;durP2;ratioP2;P2;SDS_P1;SDS_P2;PMS_P1;PMS_P2;Temp;Humidity;BMP_temperature;BMP_pressure;BME280_temperature;BME280_humidity;BME280_pressure;Samples;Min_cycle;Max_cycle;Signal;HPM_P1;HPM_P2
2021/10/13 00:02:15;;;;;;;4.82;3.50;;;11.40;99.90;;;;;;4953625;29;20473;-72
2021/10/13 00:04:41;;;;;;;5.40;3.80;;;11.40;99.90;;;;;;4953681;29;20059;-72
2021/10/13 00:07:07;;;;;;;6.38;3.80;;;11.30;99.90;;;;;;4954061;29;20071;-72
2021/10/13 00:09:32;;;;;;;8.30;3.45;;;11.30;99.90;;;;;;4951630;29;20036;-75
2021/10/13 00:11:58;;;;;;;5.93;3.63;;;11.30;99.90;;;;;;4953487;29;20036;-72
2021/10/13 00:14:24;;;;;;;3.15;2.60;;;11.30;99.90;;;;;;4953522;29;20547;-72
2021/10/13 00:16:55;;;;;;;4.97;3.70;;;11.20;99.90;;;;;;4954036;28;20126;-72
2021/10/13 00:19:22;;;;;;;5.32;3.90;;;11.20;99.90;;;;;;4953209;28;20031;-72
2021/10/13 00:21:48;;;;;;;9.85;3.92;;;11.10;99.90;;;;;;4953214;29;20035;-72
2021/10/13 00:24:14;;;;;;;8.63;4.18;;;11.10;99.90;;;;;;4952919;29;20046;-73
2021/10/13 00:26:40;;;;;;;4.30;3.60;;;11.10;99.90;;;;;;4951784;28;20027;-72
2021/10/13 00:29:05;;;;;;;7.18;3.47;;;11.00;99.90;;;;;;4953479;29;20536;-72
2021/10/13 00:31:31;;;;;;;4.22;3.15;;;11.00;99.90;;;;;;4953528;29;20047;-72
2021/10/13 00:33:57;;;;;;;4.53;3.30;;;11.00;99.90;;;;;;4936104;29;20083;-72
2021/10/13 00:36:22;;;;;;;8.18;3.58;;;10.90;99.90;;;;;;4953599;29;20099;-72
2021/10/13 00:38:48;;;;;;;6.57;3.83;;;10.90;99.90;;;;;;4953256;29;20051;-74
2021/10/13 00:41:15;;;;;;;5.82;3.72;;;10.90;99.90;;;;;;4953462;28;20039;-73
2021/10/13 00:43:43;;;;;;;6.38;3.35;;;10.90;99.90;;;;;;4956284;29;20452;-73
2021/10/13 00:46:09;;;;;;;6.85;3.33;;;10.80;99.90;;;;;;4956461;29;20093;-72
2021/10/13 00:48:34;;;;;;;5.15;3.28;;;10.80;99.90;;;;;;4956655;29;20642;-73
2021/10/13 00:51:00;;;;;;;4.53;3.22;;;10.80;99.90;;;;;;4956889;29;21006;-73
2021/10/13 00:53:27;;;;;;;6.60;3.85;;;10.80;99.90;;;;;;4957157;29;20094;-73
2021/10/13 00:55:53;;;;;;;6.20;4.03;;;10.80;99.90;;;;;;4956371;29;20051;-73
2021/10/13 00:58:20;;;;;;;7.07;3.38;;;10.80;99.90;;;;;;4956673;29;20047;-74
2021/10/13 01:00:50;;;;;;;6.10;3.45;;;10.80;99.90;;;;;;4939259;29;20053;-73
2021/10/13 01:03:35;;;;;;;6.38;3.63;;;10.80;99.90;;;;;;4955868;29;20034;-72
2021/10/13 01:06:15;;;;;;;5.78;4.03;;;10.80;99.90;;;;;;4956358;29;20484;-73
2021/10/13 01:09:07;;;;;;;6.88;4.03;;;10.80;99.90;;;;;;4950813;29;20031;-73
2021/10/13 01:11:57;;;;;;;11.68;3.60;;;10.70;99.90;;;;;;4955131;29;20028;-73
2021/10/13 01:14:48;;;;;;;7.30;3.35;;;10.70;99.90;;;;;;4956260;29;20032;-73
2021/10/13 01:17:26;;;;;;;10.65;3.85;;;10.70;99.90;;;;;;4946861;29;20087;-73
2021/10/13 01:20:26;;;;;;;5.07;3.28;;;10.70;99.90;;;;;;4955785;29;20485;-73
2021/10/13 01:23:10;;;;;;;6.97;4.03;;;10.70;99.90;;;;;;4956080;29;20032;-75
2021/10/13 01:25:45;;;;;;;5.20;3.60;;;10.70;99.90;;;;;;4956196;29;20058;-73
2021/10/13 01:28:18;;;;;;;3.67;3.05;;;10.60;99.90;;;;;;4956361;29;20496;-74
2021/10/13 01:30:59;;;;;;;5.20;3.55;;;10.60;99.90;;;;;;4956745;29;20050;-72
2021/10/13 01:33:31;;;;;;;7.95;3.92;;;10.60;99.90;;;;;;4956369;29;20497;-73
2021/10/13 01:36:00;;;;;;;6.20;3.45;;;10.60;99.90;;;;;;4956013;29;20070;-73
2021/10/13 01:38:31;;;;;;;9.30;3.78;;;10.60;99.90;;;;;;4956321;29;20032;-73
2021/10/13 01:40:59;;;;;;;6.03;4.53;;;10.50;99.90;;;;;;4955642;29;20046;-73
2021/10/13 01:43:26;;;;;;;5.93;3.90;;;10.60;99.90;;;;;;4955801;29;20080;-74
2021/10/13 01:45:54;;;;;;;5.97;3.28;;;10.60;99.90;;;;;;4938879;29;20074;-73
2021/10/13 01:48:21;;;;;;;6.95;3.80;;;10.60;99.90;;;;;;4955666;29;20043;-74
2021/10/13 01:50:50;;;;;;;4.85;3.60;;;10.60;99.90;;;;;;4955615;29;20038;-73
2021/10/13 01:53:19;;;;;;;5.00;3.60;;;10.60;99.90;;;;;;4956083;28;20031;-73
2021/10/13 01:56:08;;;;;;;5.32;3.38;;;10.60;99.90;;;;;;4956072;29;20046;-72
2021/10/13 01:58:35;;;;;;;7.07;4.25;;;10.60;99.90;;;;;;4955269;29;20560;-73
2021/10/13 02:01:02;;;;;;;7.40;3.47;;;10.60;99.90;;;;;;4955838;29;20031;-74
2021/10/13 02:03:31;;;;;;;11.98;3.50;;;10.60;99.90;;;;;;4955849;29;20046;-72
2021/10/13 02:06:02;;;;;;;5.50;3.72;;;10.60;99.90;;;;;;4953202;29;20110;-74
2021/10/13 02:08:29;;;;;;;10.93;3.93;;;10.70;99.90;;;;;;4944859;29;20118;-72
2021/10/13 02:10:59;;;;;;;5.45;3.45;;;10.70;99.90;;;;;;4955467;29;20043;-73
2021/10/13 02:13:34;;;;;;;8.60;3.90;;;10.70;99.90;;;;;;4955823;29;20031;-72
2021/10/13 02:16:01;;;;;;;10.57;3.80;;;10.60;99.90;;;;;;4955179;29;20035;-74
2021/10/13 02:18:29;;;;;;;8.57;3.58;;;10.70;99.90;;;;;;4953331;29;20105;-73
2021/10/13 02:20:56;;;;;;;7.70;4.03;;;10.60;99.90;;;;;;4954868;29;20046;-73
2021/10/13 02:23:28;;;;;;;5.53;3.28;;;10.60;99.90;;;;;;4955336;28;20023;-72
2021/10/13 02:25:55;;;;;;;4.15;3.33;;;10.60;99.90;;;;;;4955098;29;20519;-72
2021/10/13 02:28:37;;;;;;;5.63;3.65;;;10.60;99.90;;;;;;4955249;29;20134;-72
2021/10/13 02:31:03;;;;;;;4.07;3.15;;;10.60;99.90;;;;;;4955034;29;20031;-73
2021/10/13 02:33:29;;;;;;;5.80;3.83;;;10.70;99.90;;;;;;4954572;29;20507;-74
2021/10/13 02:35:55;;;;;;;8.10;3.90;;;10.60;99.90;;;;;;4955151;29;20058;-75
2021/10/13 02:38:21;;;;;;;6.70;4.13;;;10.60;99.90;;;;;;4954645;29;20461;-74
2021/10/13 02:40:47;;;;;;;5.53;3.72;;;10.60;99.90;;;;;;4954977;29;20031;-72
2021/10/13 02:43:12;;;;;;;7.75;3.72;;;10.60;99.90;;;;;;4954678;29;20031;-73
2021/10/13 02:45:43;;;;;;;4.38;3.70;;;10.60;99.90;;;;;;4955227;29;20027;-74
2021/10/13 02:48:16;;;;;;;10.25;3.85;;;10.60;99.90;;;;;;4955083;29;20500;-73
2021/10/13 02:50:49;;;;;;;6.65;3.78;;;10.60;99.90;;;;;;4954656;29;20456;-74
2021/10/13 02:53:31;;;;;;;5.55;3.72;;;10.60;99.90;;;;;;4954386;29;20050;-74
2021/10/13 02:56:11;;;;;;;6.40;4.25;;;10.50;99.90;;;;;;4954814;29;20050;-73
2021/10/13 02:59:06;;;;;;;8.23;3.60;;;10.50;99.90;;;;;;4954625;29;20054;-74
2021/10/13 03:01:38;;;;;;;6.15;3.70;;;10.50;99.90;;;;;;4937455;29;20039;-73
2021/10/13 03:04:06;;;;;;;6.03;3.55;;;10.50;99.90;;;;;;4952491;28;20039;-72
2021/10/13 03:06:41;;;;;;;5.65;3.85;;;10.50;99.90;;;;;;4953875;29;20059;-73
2021/10/13 03:09:08;;;;;;;5.15;3.80;;;10.50;99.90;;;;;;4954461;29;20039;-73
2021/10/13 03:11:34;;;;;;;9.38;4.00;;;10.50;99.90;;;;;;4954221;29;20015;-75
2021/10/13 03:14:01;;;;;;;5.32;3.90;;;10.50;99.90;;;;;;4954355;29;20425;-72
2021/10/13 03:16:28;;;;;;;5.32;4.00;;;10.50;99.90;;;;;;4954294;29;20043;-73
2021/10/13 03:18:56;;;;;;;7.30;4.72;;;10.50;99.90;;;;;;4954313;29;21037;-73
2021/10/13 03:21:26;;;;;;;6.25;4.65;;;10.50;99.90;;;;;;4954024;29;20039;-73
2021/10/13 03:23:52;;;;;;;9.23;4.55;;;10.40;99.90;;;;;;4953974;29;20408;-73
2021/10/13 03:26:18;;;;;;;8.30;5.03;;;10.50;99.90;;;;;;4954149;29;20039;-72
2021/10/13 03:28:43;;;;;;;8.25;4.78;;;10.50;99.90;;;;;;4954661;29;20035;-73
2021/10/13 03:31:09;;;;;;;7.63;5.25;;;10.50;99.90;;;;;;4954351;29;20501;-72
2021/10/13 03:33:38;;;;;;;7.30;4.50;;;10.50;99.90;;;;;;4953559;29;20729;-73
2021/10/13 03:36:05;;;;;;;7.63;4.53;;;10.50;99.90;;;;;;4954247;29;20054;-74
2021/10/13 03:38:31;;;;;;;8.60;4.43;;;10.50;99.90;;;;;;4954120;29;20444;-73
2021/10/13 03:40:57;;;;;;;6.85;4.43;;;10.50;99.90;;;;;;4953695;29;20049;-73
2021/10/13 03:43:23;;;;;;;7.28;4.72;;;10.40;99.90;;;;;;4934824;29;20045;-72
2021/10/13 03:45:49;;;;;;;10.35;4.50;;;10.40;99.90;;;;;;4954222;29;20437;-73
2021/10/13 03:48:15;;;;;;;7.15;4.30;;;10.30;99.90;;;;;;4954198;29;20041;-73
2021/10/13 03:50:41;;;;;;;7.43;4.07;;;10.30;99.90;;;;;;4953448;29;20036;-72
2021/10/13 03:53:06;;;;;;;8.60;3.88;;;10.40;99.90;;;;;;4953842;29;20035;-73
2021/10/13 03:55:32;;;;;;;11.13;4.63;;;10.30;99.90;;;;;;4935760;29;20400;-72
2021/10/13 03:57:58;;;;;;;10.00;3.75;;;10.40;99.90;;;;;;4953578;29;20031;-73
2021/10/13 04:00:24;;;;;;;16.55;4.10;;;10.30;99.90;;;;;;4953675;29;20396;-73
2021/10/13 04:02:50;;;;;;;8.43;4.00;;;10.30;99.90;;;;;;4953241;29;20494;-72
2021/10/13 04:05:16;;;;;;;7.22;3.83;;;10.30;99.90;;;;;;4954013;29;20035;-72
2021/10/13 04:07:42;;;;;;;5.63;3.80;;;10.30;99.90;;;;;;4953733;29;20031;-75
2021/10/13 04:10:11;;;;;;;5.55;3.83;;;10.20;99.90;;;;;;4954001;29;20082;-73
2021/10/13 04:12:37;;;;;;;5.82;3.80;;;10.20;99.90;;;;;;4953909;29;20500;-73
2021/10/13 04:15:04;;;;;;;8.95;4.43;;;10.10;99.90;;;;;;4953936;29;20067;-73
2021/10/13 04:17:33;;;;;;;6.15;4.07;;;10.20;99.90;;;;;;4957258;28;20031;-73
2021/10/13 04:20:07;;;;;;;9.68;4.20;;;10.10;99.90;;;;;;4956501;29;20023;-73
2021/10/13 04:22:33;;;;;;;6.38;4.10;;;10.10;99.90;;;;;;4957248;29;20027;-73
2021/10/13 04:24:58;;;;;;;6.82;4.15;;;10.10;99.90;;;;;;4957324;29;20503;-72
2021/10/13 04:27:24;;;;;;;6.75;4.43;;;10.10;99.90;;;;;;4957705;29;20118;-73
2021/10/13 04:29:50;;;;;;;9.23;4.43;;;10.10;99.90;;;;;;4957570;29;20042;-72
2021/10/13 04:32:20;;;;;;;10.63;4.78;;;10.10;99.90;;;;;;4956472;29;20042;-73
2021/10/13 04:34:49;;;;;;;8.40;5.05;;;10.10;99.90;;;;;;4957240;28;20123;-72
2021/10/13 04:37:15;;;;;;;9.73;5.00;;;10.10;99.90;;;;;;4957483;28;20031;-72
2021/10/13 04:39:41;;;;;;;12.18;5.53;;;10.10;99.90;;;;;;4954243;29;20043;-73
2021/10/13 04:42:07;;;;;;;8.90;5.43;;;10.10;99.90;;;;;;4953528;29;20046;-73
2021/10/13 04:44:32;;;;;;;9.63;5.65;;;10.10;99.90;;;;;;4956868;29;20031;-74
2021/10/13 04:46:58;;;;;;;10.18;5.13;;;10.10;99.90;;;;;;4956973;29;20042;-73
2021/10/13 04:49:24;;;;;;;20.85;5.72;;;10.20;99.90;;;;;;4956739;29;20043;-73
2021/10/13 04:51:49;;;;;;;21.00;5.07;;;10.20;99.90;;;;;;4956450;29;20031;-73
2021/10/13 04:54:15;;;;;;;13.50;4.35;;;10.20;99.90;;;;;;4956744;29;20102;-73
2021/10/13 04:56:40;;;;;;;21.83;4.90;;;10.30;99.90;;;;;;4956955;29;20404;-73
2021/10/13 04:59:06;;;;;;;9.90;5.25;;;10.30;99.90;;;;;;4956654;29;20082;-74
2021/10/13 05:01:32;;;;;;;11.20;5.57;;;10.30;99.90;;;;;;4954405;29;20031;-73
2021/10/13 05:03:58;;;;;;;11.25;5.05;;;10.30;99.90;;;;;;4956620;29;20035;-73
2021/10/13 05:06:23;;;;;;;7.07;4.85;;;10.30;99.90;;;;;;4956604;29;20499;-73
2021/10/13 05:08:49;;;;;;;13.07;5.20;;;10.20;99.90;;;;;;4956382;29;20031;-72
2021/10/13 05:11:14;;;;;;;26.73;5.28;;;10.20;99.90;;;;;;4955052;29;20031;-72
2021/10/13 05:13:40;;;;;;;15.07;5.30;;;10.20;99.90;;;;;;4956336;29;20105;-71
2021/10/13 05:16:06;;;;;;;19.35;5.22;;;10.20;99.90;;;;;;4956607;29;20047;-72
2021/10/13 05:18:32;;;;;;;22.08;5.57;;;10.30;99.90;;;;;;4956113;29;20397;-73
2021/10/13 05:20:57;;;;;;;20.20;5.03;;;10.30;99.90;;;;;;4938603;29;20095;-73
2021/10/13 05:23:23;;;;;;;18.73;5.18;;;10.40;99.90;;;;;;4956646;29;20055;-72
2021/10/13 05:25:49;;;;;;;19.25;5.88;;;10.40;99.90;;;;;;4956372;29;20039;-73
2021/10/13 05:28:14;;;;;;;14.43;5.10;;;10.40;99.90;;;;;;4956199;28;20052;-72
2021/10/13 05:30:40;;;;;;;25.02;5.20;;;10.40;99.90;;;;;;4956122;29;20054;-73
2021/10/13 05:33:06;;;;;;;21.25;5.32;;;10.40;99.90;;;;;;4949802;29;20046;-73
2021/10/13 05:35:31;;;;;;;11.00;5.10;;;10.40;99.90;;;;;;4938624;29;20051;-76
2021/10/13 05:37:57;;;;;;;15.43;5.63;;;10.50;99.90;;;;;;4956760;29;20035;-73
2021/10/13 05:40:23;;;;;;;18.95;5.93;;;10.50;99.90;;;;;;4956165;29;20523;-72
2021/10/13 05:42:49;;;;;;;12.43;5.38;;;10.50;99.90;;;;;;4956126;29;20066;-73
2021/10/13 05:45:14;;;;;;;17.00;5.22;;;10.60;99.90;;;;;;4955438;29;20043;-73
2021/10/13 05:47:40;;;;;;;21.50;6.35;;;10.60;99.90;;;;;;4954014;29;20039;-72
2021/10/13 05:50:06;;;;;;;8.77;5.05;;;10.70;99.90;;;;;;4956181;29;20522;-73
2021/10/13 05:52:32;;;;;;;10.55;5.35;;;10.70;99.90;;;;;;4955133;29;20015;-73
2021/10/13 05:54:57;;;;;;;11.63;5.60;;;10.80;99.90;;;;;;4954499;29;20043;-72
2021/10/13 05:57:23;;;;;;;13.55;5.75;;;10.80;99.90;;;;;;4955506;29;20042;-73
2021/10/13 05:59:56;;;;;;;16.38;6.28;;;10.90;99.90;;;;;;4955490;29;20117;-73
2021/10/13 06:02:22;;;;;;;15.77;6.03;;;10.90;99.90;;;;;;4955266;29;20134;-73
2021/10/13 06:04:47;;;;;;;7.90;5.13;;;11.00;99.90;;;;;;4956232;29;20118;-73
2021/10/13 06:07:13;;;;;;;13.63;6.40;;;11.00;99.90;;;;;;4956330;29;20031;-73
2021/10/13 06:09:39;;;;;;;14.63;6.13;;;11.10;99.90;;;;;;4955790;29;20059;-72
2021/10/13 06:12:05;;;;;;;14.15;5.50;;;11.10;99.90;;;;;;4955863;29;20437;-74
2021/10/13 06:14:31;;;;;;;10.48;5.57;;;11.20;99.90;;;;;;4956067;29;20440;-73
2021/10/13 06:16:56;;;;;;;12.32;6.30;;;11.20;99.90;;;;;;4956185;29;20055;-72
2021/10/13 06:19:22;;;;;;;16.65;5.90;;;11.30;99.90;;;;;;4956116;29;20027;-75
2021/10/13 06:21:47;;;;;;;12.35;6.10;;;11.40;99.90;;;;;;4955887;29;20028;-73
2021/10/13 06:24:13;;;;;;;13.25;5.75;;;11.40;99.90;;;;;;4955412;29;20028;-72
2021/10/13 06:26:39;;;;;;;20.52;6.65;;;11.50;99.90;;;;;;4955836;29;20042;-73
2021/10/13 06:29:05;;;;;;;14.88;6.18;;;11.50;99.90;;;;;;4938254;29;20038;-74
2021/10/13 06:31:31;;;;;;;41.00;6.43;;;11.60;99.90;;;;;;4955127;29;20408;-73
2021/10/13 06:33:57;;;;;;;12.45;6.15;;;11.60;99.90;;;;;;4955377;29;20035;-73
2021/10/13 06:36:24;;;;;;;11.35;6.38;;;11.70;99.90;;;;;;4955390;29;20046;-73
2021/10/13 06:38:50;;;;;;;11.73;6.35;;;11.70;99.90;;;;;;4954743;28;20038;-73
2021/10/13 06:41:16;;;;;;;15.48;6.90;;;11.70;99.90;;;;;;4937434;29;20042;-73
2021/10/13 06:43:43;;;;;;;11.68;6.15;;;11.80;99.90;;;;;;4955665;29;20380;-73
2021/10/13 06:46:08;;;;;;;17.40;6.05;;;11.80;99.90;;;;;;4951410;28;20039;-75
2021/10/13 06:48:34;;;;;;;18.30;6.07;;;11.80;99.90;;;;;;4955390;28;20037;-73
2021/10/13 06:51:00;;;;;;;13.88;5.78;;;11.80;99.90;;;;;;4955621;29;20066;-73
2021/10/13 06:53:27;;;;;;;20.98;5.50;;;11.90;99.90;;;;;;4955247;29;20508;-72
2021/10/13 06:55:54;;;;;;;12.60;6.05;;;11.90;99.90;;;;;;4955396;29;20039;-74
2021/10/13 06:58:20;;;;;;;12.18;5.45;;;11.90;99.90;;;;;;4955194;29;20074;-73
2021/10/13 07:00:46;;;;;;;18.13;5.60;;;11.90;99.90;;;;;;4955367;29;20058;-73
2021/10/13 07:03:11;;;;;;;15.48;5.80;;;11.90;99.90;;;;;;4955080;29;20063;-72
2021/10/13 07:05:37;;;;;;;8.32;5.13;;;12.00;99.90;;;;;;4955057;29;20034;-72
2021/10/13 07:08:04;;;;;;;16.50;6.43;;;12.00;99.90;;;;;;4954972;29;20023;-72
2021/10/13 07:10:36;;;;;;;13.55;5.70;;;12.10;99.90;;;;;;5109871;27;20392;-74
2021/10/13 07:13:02;;;;;;;15.18;5.65;;;12.10;99.90;;;;;;5108980;28;20077;-74
2021/10/13 07:15:27;;;;;;;16.10;5.13;;;12.30;99.90;;;;;;5104980;28;20051;-73
2021/10/13 07:17:53;;;;;;;14.00;5.15;;;12.40;99.90;;;;;;5099394;28;20028;-74
2021/10/13 07:20:19;;;;;;;12.13;5.22;;;12.40;99.90;;;;;;5105356;28;20029;-73
2021/10/13 07:22:45;;;;;;;13.15;5.68;;;12.60;99.90;;;;;;5094127;28;20055;-74
2021/10/13 07:25:11;;;;;;;12.20;5.20;;;12.70;99.90;;;;;;5109906;28;20031;-72
2021/10/13 07:27:37;;;;;;;11.70;3.65;;;12.90;99.90;;;;;;5089149;28;20017;-73
2021/10/13 07:30:08;;;;;;;8.68;3.70;;;13.40;99.90;;;;;;5091041;28;20036;-74
2021/10/13 07:32:38;;;;;;;4.43;3.33;;;14.30;99.90;;;;;;5087257;28;20031;-74
2021/10/13 07:35:04;;;;;;;3.90;3.13;;;14.80;99.90;;;;;;5084682;28;20487;-73
2021/10/13 07:37:30;;;;;;;8.60;3.65;;;15.20;99.90;;;;;;5083426;28;20035;-74
2021/10/13 07:39:56;;;;;;;4.72;3.20;;;16.00;99.90;;;;;;5083401;28;20017;-74
2021/10/13 07:42:22;;;;;;;7.60;3.35;;;16.70;99.90;;;;;;5080253;28;20021;-78
2021/10/13 07:44:48;;;;;;;4.40;3.17;;;17.00;99.90;;;;;;5077752;28;20013;-75
2021/10/13 07:47:13;;;;;;;6.60;3.70;;;17.20;99.90;;;;;;5080772;28;20465;-74
2021/10/13 07:49:41;;;;;;;5.95;3.28;;;16.90;99.90;;;;;;5094180;28;20067;-74
2021/10/13 07:52:07;;;;;;;5.60;3.28;;;16.70;99.90;;;;;;5092143;28;20381;-75
2021/10/13 07:54:33;;;;;;;9.25;3.50;;;17.20;99.90;;;;;;5084026;28;20028;-74
2021/10/13 07:56:59;;;;;;;5.20;3.22;;;17.90;99.90;;;;;;5088656;28;20044;-74
2021/10/13 07:59:24;;;;;;;8.93;4.00;;;18.30;99.90;;;;;;5082744;28;20017;-73
2021/10/13 08:01:50;;;;;;;6.13;3.40;;;18.00;99.90;;;;;;5086867;28;20095;-74
2021/10/13 08:04:16;;;;;;;6.40;3.40;;;17.60;99.90;;;;;;5075695;28;20021;-74
2021/10/13 08:06:42;;;;;;;9.07;3.42;;;17.40;99.90;;;;;;5078534;28;20017;-83
2021/10/13 08:09:11;;;;;;;8.57;3.70;;;16.80;99.90;;;;;;5083689;28;20139;-76
2021/10/13 08:11:37;;;;;;;7.03;3.08;;;16.40;99.90;;;;;;5080688;28;20048;-72
2021/10/13 08:14:03;;;;;;;7.22;3.33;;;16.00;99.90;;;;;;5080584;28;20024;-71
2021/10/13 08:16:29;;;;;;;13.68;3.92;;;15.80;99.90;;;;;;5079893;28;20020;-71
2021/10/13 08:18:54;;;;;;;6.40;3.13;;;15.50;99.90;;;;;;5084760;28;20515;-71
2021/10/13 08:21:20;;;;;;;3.63;2.80;;;15.20;99.90;;;;;;5075511;28;20049;-72
2021/10/13 08:23:46;;;;;;;23.40;4.00;;;15.00;99.90;;;;;;5070641;28;20053;-71
2021/10/13 08:26:12;;;;;;;4.47;3.05;;;15.00;99.90;;;;;;5060801;28;20099;-71
2021/10/13 08:28:37;;;;;;;4.95;3.08;;;15.20;99.90;;;;;;5069060;28;20029;-71
2021/10/13 08:31:03;;;;;;;5.45;2.75;;;15.70;99.90;;;;;;5060667;28;20392;-71
2021/10/13 08:33:29;;;;;;;7.05;2.70;;;16.40;99.90;;;;;;5075387;28;20461;-72
2021/10/13 08:35:54;;;;;;;7.65;2.25;;;17.00;99.90;;;;;;5066918;28;20029;-72
2021/10/13 08:38:20;;;;;;;3.20;2.25;;;17.40;99.90;;;;;;5058612;28;20103;-73
2021/10/13 08:40:46;;;;;;;5.95;2.53;;;17.90;99.90;;;;;;5065322;28;20029;-73
2021/10/13 08:43:12;;;;;;;2.80;2.00;;;18.40;99.40;;;;;;5060666;28;20029;-73
2021/10/13 08:45:39;;;;;;;3.28;2.17;;;18.60;99.10;;;;;;5062854;28;20108;-73
2021/10/13 08:48:06;;;;;;;2.90;1.92;;;18.90;98.90;;;;;;5062260;28;20020;-71
2021/10/13 08:50:34;;;;;;;4.03;2.05;;;19.50;97.80;;;;;;5071932;28;20032;-73
2021/10/13 08:53:10;;;;;;;2.92;2.10;;;20.10;96.90;;;;;;5070587;28;20017;-73
2021/10/13 08:55:38;;;;;;;2.00;1.60;;;21.10;96.00;;;;;;5062939;28;20025;-73
2021/10/13 08:58:20;;;;;;;2.78;1.90;;;22.00;94.10;;;;;;5060596;28;21097;-73
2021/10/13 09:00:49;;;;;;;1.98;1.58;;;22.40;93.70;;;;;;5056695;28;20103;-75
2021/10/13 09:03:44;;;;;;;3.30;1.58;;;23.60;91.70;;;;;;5063222;28;20016;-73
2021/10/13 09:06:21;;;;;;;16.98;2.45;;;23.20;90.40;;;;;;5057030;28;20086;-74
2021/10/13 09:09:00;;;;;;;8.95;1.75;;;23.30;90.60;;;;;;5069759;28;20045;-73
2021/10/13 09:11:45;;;;;;;23.27;2.03;;;23.10;90.60;;;;;;5059553;28;20484;-74
2021/10/13 09:14:10;;;;;;;3.97;1.40;;;23.80;90.40;;;;;;5057988;28;20060;-74
2021/10/13 09:16:52;;;;;;;11.73;1.80;;;24.70;89.10;;;;;;5061801;28;20425;-73
2021/10/13 09:19:20;;;;;;;40.35;3.05;;;25.20;85.50;;;;;;5057613;28;20059;-71
2021/10/13 09:21:48;;;;;;;1.50;1.30;;;27.00;83.30;;;;;;5058048;28;20071;-74
2021/10/13 09:24:14;;;;;;;7.13;1.60;;;29.00;79.90;;;;;;5057527;28;20032;-73
2021/10/13 09:26:40;;;;;;;4.82;1.40;;;29.60;78.90;;;;;;5060091;28;20024;-72
2021/10/13 09:29:09;;;;;;;2.75;1.20;;;30.70;73.10;;;;;;5053284;28;20088;-72
2021/10/13 09:31:35;;;;;;;1.95;1.10;;;31.10;70.80;;;;;;5053914;28;20017;-73
2021/10/13 09:34:04;;;;;;;1.30;1.20;;;29.90;70.70;;;;;;5054504;28;20059;-78
2021/10/13 09:36:39;;;;;;;1.88;1.10;;;29.50;71.20;;;;;;5058997;28;20021;-72
2021/10/13 09:39:18;;;;;;;8.88;1.50;;;29.60;70.20;;;;;;5055895;28;20025;-72
2021/10/13 09:42:08;;;;;;;15.10;1.23;;;29.20;70.90;;;;;;5058658;28;20047;-73
2021/10/13 09:44:43;;;;;;;6.13;1.08;;;28.50;70.70;;;;;;5056500;28;20671;-72
2021/10/13 09:47:13;;;;;;;1.00;0.90;;;26.40;74.40;;;;;;5054126;28;20028;-74
2021/10/13 09:49:41;;;;;;;1.33;0.90;;;24.10;77.10;;;;;;5076970;28;20076;-72
2021/10/13 09:52:19;;;;;;;1.15;0.93;;;22.30;80.20;;;;;;5060104;28;20431;-72
2021/10/13 09:54:58;;;;;;;1.73;1.23;;;21.30;82.70;;;;;;5052598;28;20017;-72
2021/10/13 09:57:26;;;;;;;2.08;1.15;;;20.50;84.60;;;;;;5057111;28;20385;-73
2021/10/13 10:00:14;;;;;;;6.63;1.30;;;19.80;86.90;;;;;;5059009;28;20492;-72
2021/10/13 10:02:56;;;;;;;2.67;1.33;;;19.50;87.60;;;;;;5052287;28;20032;-73
2021/10/13 10:05:31;;;;;;;;;;;19.30;88.60;;;;;;5062795;28;20024;-73
2021/10/13 10:08:04;;;;;;;2.75;1.30;;;19.40;90.00;;;;;;5057742;28;19912;-72
2021/10/13 10:10:30;;;;;;;0.85;0.85;;;19.30;88.50;;;;;;5056217;28;20045;-73
2021/10/13 10:13:10;;;;;;;2.63;1.10;;;19.10;89.50;;;;;;5059154;28;20032;-74
2021/10/13 10:15:40;;;;;;;1.25;1.00;;;19.10;89.90;;;;;;5055987;28;20029;-73
2021/10/13 10:18:27;;;;;;;5.10;1.05;;;19.00;89.10;;;;;;5052604;28;20066;-74
2021/10/13 10:20:55;;;;;;;1.05;0.98;;;18.90;88.90;;;;;;5051079;28;20029;-74
2021/10/13 10:23:31;;;;;;;1.20;1.00;;;18.80;87.90;;;;;;5058179;28;20021;-76
2021/10/13 10:26:01;;;;;;;2.90;1.17;;;18.60;88.20;;;;;;5055556;28;20433;-73
2021/10/13 10:28:51;;;;;;;1.75;1.45;;;18.70;89.90;;;;;;5064766;28;20074;-72
2021/10/13 10:31:29;;;;;;;1.83;1.05;;;18.80;87.30;;;;;;5053294;28;20079;-73
2021/10/13 10:34:07;;;;;;;2.95;1.35;;;18.70;88.20;;;;;;5053518;28;20017;-75
2021/10/13 10:36:37;;;;;;;1.33;0.90;;;18.50;89.00;;;;;;5055803;28;20032;-73
2021/10/13 10:39:08;;;;;;;2.90;1.40;;;18.60;89.30;;;;;;5063789;28;20021;-73
2021/10/13 10:41:42;;;;;;;4.88;1.30;;;18.60;88.70;;;;;;5072325;28;20054;-74
2021/10/13 10:44:34;;;;;;;7.53;1.58;;;18.50;88.10;;;;;;5068246;28;20025;-74
2021/10/13 10:47:07;;;;;;;1.67;1.20;;;18.50;89.50;;;;;;5055174;28;20051;-74
2021/10/13 10:49:55;;;;;;;1.15;0.95;;;18.60;89.40;;;;;;5084239;28;20036;-74
2021/10/13 10:52:23;;;;;;;1.60;1.35;;;18.60;90.00;;;;;;5069100;28;20040;-72
2021/10/13 10:55:06;;;;;;;2.00;1.30;;;18.50;89.90;;;;;;5093132;28;20032;-73
2021/10/13 10:57:35;;;;;;;1.42;1.15;;;18.40;90.20;;;;;;5091926;28;20020;-72
2021/10/13 11:00:08;;;;;;;1.48;1.30;;;18.10;89.20;;;;;;5087119;28;20384;-74
2021/10/13 11:02:35;;;;;;;2.85;1.38;;;18.00;89.10;;;;;;5092986;28;20111;-71
2021/10/13 11:05:08;;;;;;;2.67;1.20;;;18.00;90.10;;;;;;5092359;28;20020;-76
2021/10/13 11:07:48;;;;;;;4.97;1.08;;;17.90;90.60;;;;;;5092838;28;20480;-76
2021/10/13 11:10:14;;;;;;;7.97;1.45;;;17.80;90.30;;;;;;5092188;28;20488;-76
2021/10/13 11:12:50;;;;;;;1.20;0.95;;;17.80;89.70;;;;;;5092585;28;20472;-76
2021/10/13 11:15:17;;;;;;;8.85;1.50;;;17.90;89.50;;;;;;5092352;28;20028;-76
2021/10/13 11:17:43;;;;;;;4.65;1.30;;;18.00;90.20;;;;;;5092314;28;20528;-76
2021/10/13 11:20:15;;;;;;;3.30;1.17;;;17.90;90.00;;;;;;5092455;28;20074;-76
2021/10/13 11:22:40;;;;;;;1.13;0.70;;;17.80;89.20;;;;;;5058123;28;20063;-76
2021/10/13 11:25:14;;;;;;;1.10;1.00;;;17.90;89.80;;;;;;5077093;28;20032;-77
2021/10/13 11:27:41;;;;;;;1.27;0.90;;;17.90;90.00;;;;;;5092516;28;20070;-76
2021/10/13 11:30:18;;;;;;;2.05;1.40;;;17.70;89.70;;;;;;5092494;28;20036;-76
2021/10/13 11:32:44;;;;;;;1.15;1.00;;;17.80;90.00;;;;;;5091894;28;20019;-76
2021/10/13 11:35:10;;;;;;;10.38;1.10;;;17.90;89.50;;;;;;5072300;28;20029;-76
2021/10/13 11:37:36;;;;;;;2.47;1.15;;;17.90;89.00;;;;;;5072462;28;20024;-75
2021/10/13 11:40:04;;;;;;;2.38;1.25;;;17.90;90.00;;;;;;5072266;28;20020;-76
2021/10/13 11:42:31;;;;;;;1.90;1.00;;;17.80;90.00;;;;;;5071786;28;20029;-75
2021/10/13 11:44:57;;;;;;;3.55;2.40;;;17.80;90.40;;;;;;5072044;28;20087;-76
2021/10/13 11:47:37;;;;;;;1.70;1.38;;;18.00;90.70;;;;;;5071938;28;20013;-75
2021/10/13 11:50:07;;;;;;;2.15;1.10;;;18.10;90.60;;;;;;5071825;28;20032;-75
2021/10/13 11:52:34;;;;;;;4.43;0.93;;;18.00;90.90;;;;;;5070220;28;20027;-75
2021/10/13 11:55:09;;;;;;;6.25;1.65;;;18.10;90.50;;;;;;5058512;28;20021;-75
2021/10/13 11:57:37;;;;;;;3.42;1.60;;;18.10;86.60;;;;;;5070509;28;20373;-76
2021/10/13 12:00:13;;;;;;;6.47;1.83;;;18.10;87.40;;;;;;5075722;28;20028;-73
2021/10/13 12:02:40;;;;;;;3.58;2.80;;;18.10;85.30;;;;;;5075110;28;20022;-73
2021/10/13 12:05:08;;;;;;;1.42;1.33;;;18.00;85.20;;;;;;5075421;28;20043;-74
2021/10/13 12:07:44;;;;;;;2.35;1.30;;;17.90;86.40;;;;;;5075363;28;20473;-73
2021/10/13 12:10:10;;;;;;;2.78;1.20;;;18.00;88.40;;;;;;5075139;28;20127;-74
2021/10/13 12:12:36;;;;;;;14.82;6.97;;;17.90;88.40;;;;;;5074666;28;20036;-72
2021/10/13 12:15:17;;;;;;;1.45;1.00;;;18.00;88.60;;;;;;5075334;28;20485;-72
2021/10/13 12:17:43;;;;;;;4.95;1.42;;;18.10;87.00;;;;;;5089768;28;20024;-76
2021/10/13 12:20:17;;;;;;;9.70;4.50;;;18.10;87.60;;;;;;5095467;28;20388;-73
2021/10/13 12:22:49;;;;;;;7.72;1.95;;;18.10;89.50;;;;;;5095559;28;20111;-73
2021/10/13 12:25:28;;;;;;;3.45;1.70;;;18.10;90.40;;;;;;5086485;28;20028;-78
2021/10/13 12:27:54;;;;;;;1.48;1.00;;;18.10;88.00;;;;;;5067590;28;20045;-77
2021/10/13 12:30:34;;;;;;;3.92;1.63;;;18.00;88.10;;;;;;5062771;28;20397;-75
2021/10/13 12:33:17;;;;;;;1.45;1.30;;;17.90;88.80;;;;;;5067625;28;20131;-72
2021/10/13 12:35:44;;;;;;;2.03;1.30;;;17.90;89.50;;;;;;5066823;28;20020;-72
2021/10/13 12:38:23;;;;;;;1.73;1.20;;;17.90;87.00;;;;;;5070646;28;20028;-74
2021/10/13 12:41:03;;;;;;;13.98;5.65;;;17.80;87.60;;;;;;5074271;28;20035;-72
2021/10/13 12:43:29;;;;;;;2.38;1.48;;;17.70;87.70;;;;;;5074854;28;20090;-74
2021/10/13 12:45:55;;;;;;;1.80;1.50;;;17.60;88.00;;;;;;5078601;28;20025;-73
2021/10/13 12:48:22;;;;;;;2.13;1.55;;;17.50;89.40;;;;;;5086612;28;20659;-73
2021/10/13 12:51:08;;;;;;;3.22;1.30;;;17.60;89.10;;;;;;5066683;28;20024;-74
2021/10/13 12:53:36;;;;;;;1.98;1.45;;;17.60;88.80;;;;;;5059683;28;20025;-74
2021/10/13 12:56:02;;;;;;;4.60;1.33;;;17.60;87.40;;;;;;5054189;28;20466;-75
2021/10/13 12:58:28;;;;;;;8.70;1.90;;;17.50;87.80;;;;;;5061405;28;20025;-73